sensor_id;sensor_type;location;lat;lon;timestamp;temperature;humidity
5972;DHT22;3012;49.944;8.454;2023-09-12T00:01:29;21.40;99.90
5972;DHT22;3012;49.944;8.454;2023-09-12T00:03:59;21.40;99.90
5972;DHT22;3012;49.944;8.454;2023-09-12T00:06:27;21.30;99.90
5972;DHT22;3012;49.944;8.454;2023-09-12T00:08:55;21.30;99.90
5972;DHT22;3012;49.944;8.454;2023-09-12T00:11:24;21.20;99.90
5972;DHT22;3012;49.944;8.454;2023-09-12T00:13:53;21.30;99.90
5972;DHT22;3012;49.944;8.454;2023-09-12T00:16:21;21.30;99.90
5972;DHT22;3012;49.944;8.454;2023-09-12T00:18:51;21.30;99.90
5972;DHT22;3012;49.944;8.454;2023-09-12T00:21:19;21.30;99.90
5972;DHT22;3012;49.944;8.454;2023-09-12T00:23:47;21.30;99.90
5972;DHT22;3012;49.944;8.454;2023-09-12T00:26:15;21.20;99.90
5972;DHT22;3012;49.944;8.454;2023-09-12T00:28:43;21.20;99.90
5972;DHT22;3012;49.944;8.454;2023-09-12T00:31:11;21.20;99.90
5972;DHT22;3012;49.944;8.454;2023-09-12T00:33:39;20.70;99.90
5972;DHT22;3012;49.944;8.454;2023-09-12T00:36:09;21.20;99.90
5972;DHT22;3012;49.944;8.454;2023-09-12T00:38:37;20.70;99.90
5972;DHT22;3012;49.944;8.454;2023-09-12T00:41:05;21.10;99.90
5972;DHT22;3012;49.944;8.454;2023-09-12T00:43:33;21.10;99.90
5972;DHT22;3012;49.944;8.454;2023-09-12T00:46:01;21.30;99.90
5972;DHT22;3012;49.944;8.454;2023-09-12T00:48:29;21.10;99.90
5972;DHT22;3012;49.944;8.454;2023-09-12T00:50:58;21.10;99.90
5972;DHT22;3012;49.944;8.454;2023-09-12T00:53:29;21.30;99.90
5972;DHT22;3012;49.944;8.454;2023-09-12T00:55:59;21.00;99.90
5972;DHT22;3012;49.944;8.454;2023-09-12T00:58:28;20.90;99.90
5972;DHT22;3012;49.944;8.454;2023-09-12T01:00:56;20.90;99.90
5972;DHT22;3012;49.944;8.454;2023-09-12T01:03:25;20.90;99.90
5972;DHT22;3012;49.944;8.454;2023-09-12T01:05:54;21.30;99.90
5972;DHT22;3012;49.944;8.454;2023-09-12T01:08:23;20.90;99.90
5972;DHT22;3012;49.944;8.454;2023-09-12T01:10:55;20.90;99.90
5972;DHT22;3012;49.944;8.454;2023-09-12T01:13:24;20.80;99.90
5972;DHT22;3012;49.944;8.454;2023-09-12T01:15:52;20.80;99.90
5972;DHT22;3012;49.944;8.454;2023-09-12T01:18:20;20.70;99.90
5972;DHT22;3012;49.944;8.454;2023-09-12T01:21:04;20.90;99.90
5972;DHT22;3012;49.944;8.454;2023-09-12T01:23:47;20.70;99.90
5972;DHT22;3012;49.944;8.454;2023-09-12T01:26:29;20.60;99.90
5972;DHT22;3012;49.944;8.454;2023-09-12T01:28:59;20.70;99.90
5972;DHT22;3012;49.944;8.454;2023-09-12T01:31:29;20.50;99.90
5972;DHT22;3012;49.944;8.454;2023-09-12T01:33:57;20.50;99.90
5972;DHT22;3012;49.944;8.454;2023-09-12T01:36:26;20.30;99.90
5972;DHT22;3012;49.944;8.454;2023-09-12T01:38:54;20.40;99.90
5972;DHT22;3012;49.944;8.454;2023-09-12T01:41:22;20.40;99.90
5972;DHT22;3012;49.944;8.454;2023-09-12T01:43:50;20.40;99.90
5972;DHT22;3012;49.944;8.454;2023-09-12T01:46:22;20.50;99.90
5972;DHT22;3012;49.944;8.454;2023-09-12T01:48:52;20.50;99.90
5972;DHT22;3012;49.944;8.454;2023-09-12T01:51:24;20.60;99.90
5972;DHT22;3012;49.944;8.454;2023-09-12T01:53:53;20.40;99.90
5972;DHT22;3012;49.944;8.454;2023-09-12T01:56:23;20.40;99.90
5972;DHT22;3012;49.944;8.454;2023-09-12T01:58:51;20.40;99.90
5972;DHT22;3012;49.944;8.454;2023-09-12T02:01:21;20.40;99.90
5972;DHT22;3012;49.944;8.454;2023-09-12T02:03:51;20.30;99.90
5972;DHT22;3012;49.944;8.454;2023-09-12T02:06:19;20.30;99.90
5972;DHT22;3012;49.944;8.454;2023-09-12T02:08:48;20.30;99.90
5972;DHT22;3012;49.944;8.454;2023-09-12T02:11:16;20.30;99.90
5972;DHT22;3012;49.944;8.454;2023-09-12T02:13:43;20.30;99.90
5972;DHT22;3012;49.944;8.454;2023-09-12T02:16:11;20.50;99.90
5972;DHT22;3012;49.944;8.454;2023-09-12T02:18:41;20.30;99.90
5972;DHT22;3012;49.944;8.454;2023-09-12T02:21:10;20.50;99.90
5972;DHT22;3012;49.944;8.454;2023-09-12T02:23:38;20.30;99.90
5972;DHT22;3012;49.944;8.454;2023-09-12T02:26:06;20.10;99.90
5972;DHT22;3012;49.944;8.454;2023-09-12T02:28:35;20.30;99.90
5972;DHT22;3012;49.944;8.454;2023-09-12T02:31:03;20.30;99.90
5972;DHT22;3012;49.944;8.454;2023-09-12T02:33:31;20.40;99.90
5972;DHT22;3012;49.944;8.454;2023-09-12T02:36:01;20.30;99.90
5972;DHT22;3012;49.944;8.454;2023-09-12T02:38:30;19.70;99.90
5972;DHT22;3012;49.944;8.454;2023-09-12T02:40:58;19.80;99.90
5972;DHT22;3012;49.944;8.454;2023-09-12T02:43:26;20.20;99.90
5972;DHT22;3012;49.944;8.454;2023-09-12T02:45:54;20.20;99.90
5972;DHT22;3012;49.944;8.454;2023-09-12T02:48:22;20.20;99.90
5972;DHT22;3012;49.944;8.454;2023-09-12T02:50:50;20.20;99.90
5972;DHT22;3012;49.944;8.454;2023-09-12T02:53:20;20.20;99.90
5972;DHT22;3012;49.944;8.454;2023-09-12T02:55:48;20.20;99.90
5972;DHT22;3012;49.944;8.454;2023-09-12T02:58:17;20.20;99.90
5972;DHT22;3012;49.944;8.454;2023-09-12T03:00:45;20.20;99.90
5972;DHT22;3012;49.944;8.454;2023-09-12T03:03:16;20.20;99.90
5972;DHT22;3012;49.944;8.454;2023-09-12T03:05:45;20.20;99.90
5972;DHT22;3012;49.944;8.454;2023-09-12T03:08:13;20.10;99.90
5972;DHT22;3012;49.944;8.454;2023-09-12T03:10:42;20.20;99.90
5972;DHT22;3012;49.944;8.454;2023-09-12T03:13:11;20.20;99.90
5972;DHT22;3012;49.944;8.454;2023-09-12T03:15:40;20.10;99.90
5972;DHT22;3012;49.944;8.454;2023-09-12T03:18:10;20.10;99.90
5972;DHT22;3012;49.944;8.454;2023-09-12T03:20:38;20.10;99.90
5972;DHT22;3012;49.944;8.454;2023-09-12T03:23:07;19.80;99.90
5972;DHT22;3012;49.944;8.454;2023-09-12T03:25:37;20.10;99.90
5972;DHT22;3012;49.944;8.454;2023-09-12T03:28:07;20.10;99.90
5972;DHT22;3012;49.944;8.454;2023-09-12T03:30:37;20.00;99.90
5972;DHT22;3012;49.944;8.454;2023-09-12T03:33:05;20.10;99.90
5972;DHT22;3012;49.944;8.454;2023-09-12T03:35:33;20.40;99.90
5972;DHT22;3012;49.944;8.454;2023-09-12T03:38:02;19.40;99.90
5972;DHT22;3012;49.944;8.454;2023-09-12T03:40:31;20.00;99.90
5972;DHT22;3012;49.944;8.454;2023-09-12T03:42:59;20.00;99.90
5972;DHT22;3012;49.944;8.454;2023-09-12T03:45:29;20.10;99.90
5972;DHT22;3012;49.944;8.454;2023-09-12T03:47:58;20.00;99.90
5972;DHT22;3012;49.944;8.454;2023-09-12T03:50:26;19.70;99.90
5972;DHT22;3012;49.944;8.454;2023-09-12T03:52:54;20.00;99.90
5972;DHT22;3012;49.944;8.454;2023-09-12T03:55:22;20.00;99.90
5972;DHT22;3012;49.944;8.454;2023-09-12T03:57:50;20.00;99.90
5972;DHT22;3012;49.944;8.454;2023-09-12T04:00:18;20.00;99.90
5972;DHT22;3012;49.944;8.454;2023-09-12T04:02:48;20.00;99.90
5972;DHT22;3012;49.944;8.454;2023-09-12T04:05:18;20.00;99.90
5972;DHT22;3012;49.944;8.454;2023-09-12T04:07:46;19.90;99.90
5972;DHT22;3012;49.944;8.454;2023-09-12T04:10:14;20.00;99.90
5972;DHT22;3012;49.944;8.454;2023-09-12T04:12:42;20.00;99.90
5972;DHT22;3012;49.944;8.454;2023-09-12T04:15:10;19.90;99.90
5972;DHT22;3012;49.944;8.454;2023-09-12T04:17:38;20.00;99.90
5972;DHT22;3012;49.944;8.454;2023-09-12T04:20:11;19.90;99.90
5972;DHT22;3012;49.944;8.454;2023-09-12T04:22:41;20.00;99.90
5972;DHT22;3012;49.944;8.454;2023-09-12T04:25:11;20.00;99.90
5972;DHT22;3012;49.944;8.454;2023-09-12T04:27:41;20.00;99.90
5972;DHT22;3012;49.944;8.454;2023-09-12T04:30:11;20.00;99.90
5972;DHT22;3012;49.944;8.454;2023-09-12T04:32:39;20.00;99.90
5972;DHT22;3012;49.944;8.454;2023-09-12T04:35:08;19.40;99.90
5972;DHT22;3012;49.944;8.454;2023-09-12T04:37:37;20.00;99.90
5972;DHT22;3012;49.944;8.454;2023-09-12T04:40:07;20.00;99.90
5972;DHT22;3012;49.944;8.454;2023-09-12T04:42:35;19.90;99.90
5972;DHT22;3012;49.944;8.454;2023-09-12T04:45:04;19.90;99.90
5972;DHT22;3012;49.944;8.454;2023-09-12T04:47:32;19.90;99.90
5972;DHT22;3012;49.944;8.454;2023-09-12T04:50:03;20.10;99.90
5972;DHT22;3012;49.944;8.454;2023-09-12T04:52:31;20.00;99.90
5972;DHT22;3012;49.944;8.454;2023-09-12T04:55:01;19.90;99.90
5972;DHT22;3012;49.944;8.454;2023-09-12T04:57:30;19.90;99.90
5972;DHT22;3012;49.944;8.454;2023-09-12T05:00:00;19.90;99.90
5972;DHT22;3012;49.944;8.454;2023-09-12T05:02:28;19.90;99.90
5972;DHT22;3012;49.944;8.454;2023-09-12T05:04:56;19.90;99.90
5972;DHT22;3012;49.944;8.454;2023-09-12T05:07:24;20.00;99.90
5972;DHT22;3012;49.944;8.454;2023-09-12T05:09:52;20.10;99.90
5972;DHT22;3012;49.944;8.454;2023-09-12T05:12:21;19.90;99.90
5972;DHT22;3012;49.944;8.454;2023-09-12T05:14:50;19.90;99.90
5972;DHT22;3012;49.944;8.454;2023-09-12T05:17:18;19.90;99.90
5972;DHT22;3012;49.944;8.454;2023-09-12T05:19:46;19.90;99.90
5972;DHT22;3012;49.944;8.454;2023-09-12T05:22:14;20.00;99.90
5972;DHT22;3012;49.944;8.454;2023-09-12T05:24:42;20.30;99.90
5972;DHT22;3012;49.944;8.454;2023-09-12T05:27:11;19.90;99.90
5972;DHT22;3012;49.944;8.454;2023-09-12T05:29:40;19.90;99.90
5972;DHT22;3012;49.944;8.454;2023-09-12T05:32:08;20.00;99.90
5972;DHT22;3012;49.944;8.454;2023-09-12T05:34:36;19.90;99.90
5972;DHT22;3012;49.944;8.454;2023-09-12T05:37:04;20.00;99.90
5972;DHT22;3012;49.944;8.454;2023-09-12T05:39:33;19.60;99.90
5972;DHT22;3012;49.944;8.454;2023-09-12T05:42:01;20.00;99.90
5972;DHT22;3012;49.944;8.454;2023-09-12T05:44:30;20.00;99.90
5972;DHT22;3012;49.944;8.454;2023-09-12T05:46:59;19.90;99.90
5972;DHT22;3012;49.944;8.454;2023-09-12T05:49:27;20.00;99.90
5972;DHT22;3012;49.944;8.454;2023-09-12T05:51:57;19.90;99.90
5972;DHT22;3012;49.944;8.454;2023-09-12T05:54:25;20.00;99.90
5972;DHT22;3012;49.944;8.454;2023-09-12T05:56:53;20.00;99.90
5972;DHT22;3012;49.944;8.454;2023-09-12T05:59:22;20.00;99.90
5972;DHT22;3012;49.944;8.454;2023-09-12T06:01:50;20.10;99.90
5972;DHT22;3012;49.944;8.454;2023-09-12T06:04:20;20.00;99.90
5972;DHT22;3012;49.944;8.454;2023-09-12T06:06:50;20.00;99.90
5972;DHT22;3012;49.944;8.454;2023-09-12T06:09:18;20.00;99.90
5972;DHT22;3012;49.944;8.454;2023-09-12T06:11:46;19.80;99.90
5972;DHT22;3012;49.944;8.454;2023-09-12T06:14:14;20.00;99.90
5972;DHT22;3012;49.944;8.454;2023-09-12T06:16:42;20.10;99.90
5972;DHT22;3012;49.944;8.454;2023-09-12T06:19:11;19.70;99.90
5972;DHT22;3012;49.944;8.454;2023-09-12T06:21:40;20.00;99.90
5972;DHT22;3012;49.944;8.454;2023-09-12T06:24:11;19.90;99.90
5972;DHT22;3012;49.944;8.454;2023-09-12T06:26:40;19.90;99.90
5972;DHT22;3012;49.944;8.454;2023-09-12T06:29:08;20.00;99.90
5972;DHT22;3012;49.944;8.454;2023-09-12T06:31:36;20.30;99.90
5972;DHT22;3012;49.944;8.454;2023-09-12T06:34:05;19.70;99.90
5972;DHT22;3012;49.944;8.454;2023-09-12T06:36:33;19.90;99.90
5972;DHT22;3012;49.944;8.454;2023-09-12T06:39:03;20.10;99.90
5972;DHT22;3012;49.944;8.454;2023-09-12T06:41:32;20.00;99.90
5972;DHT22;3012;49.944;8.454;2023-09-12T06:44:00;20.00;99.90
5972;DHT22;3012;49.944;8.454;2023-09-12T06:46:29;19.90;99.90
5972;DHT22;3012;49.944;8.454;2023-09-12T06:48:58;20.10;99.90
5972;DHT22;3012;49.944;8.454;2023-09-12T06:51:26;20.00;99.90
5972;DHT22;3012;49.944;8.454;2023-09-12T06:54:00;20.10;99.90
5972;DHT22;3012;49.944;8.454;2023-09-12T06:56:31;20.20;99.90
5972;DHT22;3012;49.944;8.454;2023-09-12T06:58:59;20.20;99.90
5972;DHT22;3012;49.944;8.454;2023-09-12T07:01:27;20.30;99.90
5972;DHT22;3012;49.944;8.454;2023-09-12T07:03:55;20.30;99.90
5972;DHT22;3012;49.944;8.454;2023-09-12T07:06:23;20.00;99.90
5972;DHT22;3012;49.944;8.454;2023-09-12T07:08:51;20.40;99.90
5972;DHT22;3012;49.944;8.454;2023-09-12T07:11:19;20.40;99.90
5972;DHT22;3012;49.944;8.454;2023-09-12T07:13:48;20.40;99.90
5972;DHT22;3012;49.944;8.454;2023-09-12T07:16:19;20.50;99.90
5972;DHT22;3012;49.944;8.454;2023-09-12T07:18:48;20.70;99.90
5972;DHT22;3012;49.944;8.454;2023-09-12T07:21:16;21.00;99.90
5972;DHT22;3012;49.944;8.454;2023-09-12T07:23:44;20.60;99.90
5972;DHT22;3012;49.944;8.454;2023-09-12T07:26:13;20.70;99.90
5972;DHT22;3012;49.944;8.454;2023-09-12T07:28:41;20.60;99.90
5972;DHT22;3012;49.944;8.454;2023-09-12T07:31:10;20.90;99.90
5972;DHT22;3012;49.944;8.454;2023-09-12T07:33:39;20.90;99.90
5972;DHT22;3012;49.944;8.454;2023-09-12T07:36:08;21.00;99.90
5972;DHT22;3012;49.944;8.454;2023-09-12T07:38:36;21.10;99.90
5972;DHT22;3012;49.944;8.454;2023-09-12T07:41:05;21.10;99.90
5972;DHT22;3012;49.944;8.454;2023-09-12T07:43:32;21.20;99.90
5972;DHT22;3012;49.944;8.454;2023-09-12T07:46:00;21.10;99.90
5972;DHT22;3012;49.944;8.454;2023-09-12T07:48:30;21.20;99.90
5972;DHT22;3012;49.944;8.454;2023-09-12T07:50:58;21.30;99.90
5972;DHT22;3012;49.944;8.454;2023-09-12T07:53:26;21.40;99.90
5972;DHT22;3012;49.944;8.454;2023-09-12T07:55:59;21.60;99.90
5972;DHT22;3012;49.944;8.454;2023-09-12T07:58:27;21.90;99.90
5972;DHT22;3012;49.944;8.454;2023-09-12T08:00:55;21.80;99.90
5972;DHT22;3012;49.944;8.454;2023-09-12T08:03:23;21.70;99.90
5972;DHT22;3012;49.944;8.454;2023-09-12T08:05:56;21.90;99.90
5972;DHT22;3012;49.944;8.454;2023-09-12T08:08:24;22.00;99.90
5972;DHT22;3012;49.944;8.454;2023-09-12T08:10:52;22.10;99.90
5972;DHT22;3012;49.944;8.454;2023-09-12T08:13:22;22.10;99.90
5972;DHT22;3012;49.944;8.454;2023-09-12T08:15:50;21.70;99.90
5972;DHT22;3012;49.944;8.454;2023-09-12T08:18:18;22.20;99.90
5972;DHT22;3012;49.944;8.454;2023-09-12T08:20:46;22.30;99.90
5972;DHT22;3012;49.944;8.454;2023-09-12T08:23:15;22.50;99.90
5972;DHT22;3012;49.944;8.454;2023-09-12T08:25:43;22.40;99.90
5972;DHT22;3012;49.944;8.454;2023-09-12T08:28:11;22.50;99.90
5972;DHT22;3012;49.944;8.454;2023-09-12T08:30:39;22.60;99.90
5972;DHT22;3012;49.944;8.454;2023-09-12T08:33:07;22.70;99.90
5972;DHT22;3012;49.944;8.454;2023-09-12T08:35:35;22.90;99.90
5972;DHT22;3012;49.944;8.454;2023-09-12T08:38:03;22.90;99.90
5972;DHT22;3012;49.944;8.454;2023-09-12T08:40:34;23.10;99.90
5972;DHT22;3012;49.944;8.454;2023-09-12T08:43:03;23.10;99.90
5972;DHT22;3012;49.944;8.454;2023-09-12T08:45:31;23.20;99.90
5972;DHT22;3012;49.944;8.454;2023-09-12T08:48:00;23.30;99.90
5972;DHT22;3012;49.944;8.454;2023-09-12T08:50:29;23.40;99.90
5972;DHT22;3012;49.944;8.454;2023-09-12T08:53:00;23.50;99.90
5972;DHT22;3012;49.944;8.454;2023-09-12T08:55:36;23.70;99.90
5972;DHT22;3012;49.944;8.454;2023-09-12T08:58:05;23.70;99.90
5972;DHT22;3012;49.944;8.454;2023-09-12T09:00:34;23.80;99.90
5972;DHT22;3012;49.944;8.454;2023-09-12T09:03:03;23.80;99.90
5972;DHT22;3012;49.944;8.454;2023-09-12T09:05:33;23.90;99.90
5972;DHT22;3012;49.944;8.454;2023-09-12T09:08:03;24.10;99.90
5972;DHT22;3012;49.944;8.454;2023-09-12T09:10:32;24.10;99.90
5972;DHT22;3012;49.944;8.454;2023-09-12T09:13:04;24.20;99.90
5972;DHT22;3012;49.944;8.454;2023-09-12T09:15:33;24.40;99.90
5972;DHT22;3012;49.944;8.454;2023-09-12T09:18:05;24.40;99.90
5972;DHT22;3012;49.944;8.454;2023-09-12T09:20:34;24.40;99.90
5972;DHT22;3012;49.944;8.454;2023-09-12T09:23:04;24.50;99.90
5972;DHT22;3012;49.944;8.454;2023-09-12T09:25:33;24.60;99.90
5972;DHT22;3012;49.944;8.454;2023-09-12T09:28:05;24.70;99.90
5972;DHT22;3012;49.944;8.454;2023-09-12T09:30:43;24.70;99.90
5972;DHT22;3012;49.944;8.454;2023-09-12T09:33:12;24.80;99.90
5972;DHT22;3012;49.944;8.454;2023-09-12T09:35:41;24.90;99.90
5972;DHT22;3012;49.944;8.454;2023-09-12T09:38:10;25.10;99.90
5972;DHT22;3012;49.944;8.454;2023-09-12T09:40:43;25.20;99.90
5972;DHT22;3012;49.944;8.454;2023-09-12T09:43:12;25.30;99.90
5972;DHT22;3012;49.944;8.454;2023-09-12T09:45:45;25.40;99.90
5972;DHT22;3012;49.944;8.454;2023-09-12T09:48:18;25.50;99.90
5972;DHT22;3012;49.944;8.454;2023-09-12T09:50:47;25.60;99.90
5972;DHT22;3012;49.944;8.454;2023-09-12T09:53:15;25.70;99.90
5972;DHT22;3012;49.944;8.454;2023-09-12T09:55:43;25.70;99.90
5972;DHT22;3012;49.944;8.454;2023-09-12T09:58:16;25.80;99.90
5972;DHT22;3012;49.944;8.454;2023-09-12T10:00:45;25.90;99.90
5972;DHT22;3012;49.944;8.454;2023-09-12T10:03:18;26.00;99.90
5972;DHT22;3012;49.944;8.454;2023-09-12T10:05:48;26.00;99.90
5972;DHT22;3012;49.944;8.454;2023-09-12T10:08:19;26.00;99.90
5972;DHT22;3012;49.944;8.454;2023-09-12T10:10:48;26.10;99.90
5972;DHT22;3012;49.944;8.454;2023-09-12T10:13:19;26.10;99.90
5972;DHT22;3012;49.944;8.454;2023-09-12T10:15:49;26.30;99.90
5972;DHT22;3012;49.944;8.454;2023-09-12T10:18:22;26.40;99.90
5972;DHT22;3012;49.944;8.454;2023-09-12T10:21:02;26.50;99.90
5972;DHT22;3012;49.944;8.454;2023-09-12T10:23:36;26.60;99.90
5972;DHT22;3012;49.944;8.454;2023-09-12T10:26:11;26.70;99.90
5972;DHT22;3012;49.944;8.454;2023-09-12T10:28:42;26.80;99.90
5972;DHT22;3012;49.944;8.454;2023-09-12T10:31:12;26.90;99.90
5972;DHT22;3012;49.944;8.454;2023-09-12T10:33:40;27.00;99.90
5972;DHT22;3012;49.944;8.454;2023-09-12T10:36:10;27.10;99.90
5972;DHT22;3012;49.944;8.454;2023-09-12T10:38:41;27.10;99.90
5972;DHT22;3012;49.944;8.454;2023-09-12T10:41:11;27.30;99.90
5972;DHT22;3012;49.944;8.454;2023-09-12T10:43:43;27.30;99.90
5972;DHT22;3012;49.944;8.454;2023-09-12T10:46:13;27.10;99.90
5972;DHT22;3012;49.944;8.454;2023-09-12T10:48:41;26.90;99.90
5972;DHT22;3012;49.944;8.454;2023-09-12T10:51:10;26.80;99.90
5972;DHT22;3012;49.944;8.454;2023-09-12T10:53:45;26.60;99.90
5972;DHT22;3012;49.944;8.454;2023-09-12T10:56:17;26.50;99.90
5972;DHT22;3012;49.944;8.454;2023-09-12T10:59:18;26.40;99.90
5972;DHT22;3012;49.944;8.454;2023-09-12T11:01:48;26.40;99.90
5972;DHT22;3012;49.944;8.454;2023-09-12T11:04:32;26.50;99.90
5972;DHT22;3012;49.944;8.454;2023-09-12T11:07:01;26.60;99.90
5972;DHT22;3012;49.944;8.454;2023-09-12T11:09:29;26.80;99.90
5972;DHT22;3012;49.944;8.454;2023-09-12T11:12:01;26.90;99.90
5972;DHT22;3012;49.944;8.454;2023-09-12T11:14:31;26.90;99.90
5972;DHT22;3012;49.944;8.454;2023-09-12T11:17:21;27.30;99.90
5972;DHT22;3012;49.944;8.454;2023-09-12T11:19:51;27.60;99.90
5972;DHT22;3012;49.944;8.454;2023-09-12T11:22:24;27.80;99.90
5972;DHT22;3012;49.944;8.454;2023-09-12T11:24:52;27.70;99.90
5972;DHT22;3012;49.944;8.454;2023-09-12T11:27:23;27.60;99.90
5972;DHT22;3012;49.944;8.454;2023-09-12T11:29:52;27.40;99.90
5972;DHT22;3012;49.944;8.454;2023-09-12T11:32:27;27.20;99.90
5972;DHT22;3012;49.944;8.454;2023-09-12T11:34:55;27.20;99.90
5972;DHT22;3012;49.944;8.454;2023-09-12T11:37:24;27.40;99.90
5972;DHT22;3012;49.944;8.454;2023-09-12T11:39:53;28.10;99.90
5972;DHT22;3012;49.944;8.454;2023-09-12T11:42:21;29.00;99.90
5972;DHT22;3012;49.944;8.454;2023-09-12T11:44:53;29.60;99.20
5972;DHT22;3012;49.944;8.454;2023-09-12T11:47:21;29.50;99.90
5972;DHT22;3012;49.944;8.454;2023-09-12T11:49:49;29.10;98.30
5972;DHT22;3012;49.944;8.454;2023-09-12T11:52:17;28.60;99.10
5972;DHT22;3012;49.944;8.454;2023-09-12T11:54:47;28.50;99.90
5972;DHT22;3012;49.944;8.454;2023-09-12T11:57:16;28.80;99.50
5972;DHT22;3012;49.944;8.454;2023-09-12T11:59:44;29.00;99.50
5972;DHT22;3012;49.944;8.454;2023-09-12T12:02:16;29.20;98.50
5972;DHT22;3012;49.944;8.454;2023-09-12T12:04:48;29.30;97.60
5972;DHT22;3012;49.944;8.454;2023-09-12T12:07:17;29.50;97.30
5972;DHT22;3012;49.944;8.454;2023-09-12T12:09:45;29.60;98.20
5972;DHT22;3012;49.944;8.454;2023-09-12T12:12:14;29.70;97.30
5972;DHT22;3012;49.944;8.454;2023-09-12T12:14:42;29.80;96.70
5972;DHT22;3012;49.944;8.454;2023-09-12T12:17:17;29.90;95.30
5972;DHT22;3012;49.944;8.454;2023-09-12T12:19:45;29.90;95.40
5972;DHT22;3012;49.944;8.454;2023-09-12T12:22:14;30.10;96.20
5972;DHT22;3012;49.944;8.454;2023-09-12T12:24:44;30.40;95.50
5972;DHT22;3012;49.944;8.454;2023-09-12T12:27:14;30.30;95.60
5972;DHT22;3012;49.944;8.454;2023-09-12T12:29:42;30.20;92.80
5972;DHT22;3012;49.944;8.454;2023-09-12T12:32:14;30.30;93.90
5972;DHT22;3012;49.944;8.454;2023-09-12T12:34:49;30.40;93.60
5972;DHT22;3012;49.944;8.454;2023-09-12T12:37:37;30.60;92.90
5972;DHT22;3012;49.944;8.454;2023-09-12T12:40:11;30.80;91.40
5972;DHT22;3012;49.944;8.454;2023-09-12T12:42:40;30.80;92.20
5972;DHT22;3012;49.944;8.454;2023-09-12T12:45:21;31.00;92.20
5972;DHT22;3012;49.944;8.454;2023-09-12T12:47:51;31.20;91.00
5972;DHT22;3012;49.944;8.454;2023-09-12T12:50:21;31.50;91.60
5972;DHT22;3012;49.944;8.454;2023-09-12T12:52:49;31.60;90.40
5972;DHT22;3012;49.944;8.454;2023-09-12T12:55:17;31.80;89.30
5972;DHT22;3012;49.944;8.454;2023-09-12T12:57:47;31.80;86.00
5972;DHT22;3012;49.944;8.454;2023-09-12T13:00:17;31.70;87.00
5972;DHT22;3012;49.944;8.454;2023-09-12T13:02:45;31.70;85.90
5972;DHT22;3012;49.944;8.454;2023-09-12T13:05:24;32.00;86.30
5972;DHT22;3012;49.944;8.454;2023-09-12T13:07:52;32.90;81.50
5972;DHT22;3012;49.944;8.454;2023-09-12T13:10:20;33.40;79.50
5972;DHT22;3012;49.944;8.454;2023-09-12T13:12:49;34.30;77.70
5972;DHT22;3012;49.944;8.454;2023-09-12T13:15:17;35.30;74.40
5972;DHT22;3012;49.944;8.454;2023-09-12T13:17:46;36.00;69.70
5972;DHT22;3012;49.944;8.454;2023-09-12T13:20:14;36.50;66.60
5972;DHT22;3012;49.944;8.454;2023-09-12T13:22:43;36.70;64.90
5972;DHT22;3012;49.944;8.454;2023-09-12T13:25:11;37.10;61.10
5972;DHT22;3012;49.944;8.454;2023-09-12T13:27:39;36.90;58.30
5972;DHT22;3012;49.944;8.454;2023-09-12T13:30:08;35.90;59.90
5972;DHT22;3012;49.944;8.454;2023-09-12T13:32:37;36.00;60.90
5972;DHT22;3012;49.944;8.454;2023-09-12T13:35:06;36.60;59.50
5972;DHT22;3012;49.944;8.454;2023-09-12T13:37:34;36.50;57.40
5972;DHT22;3012;49.944;8.454;2023-09-12T13:40:05;37.10;57.40
5972;DHT22;3012;49.944;8.454;2023-09-12T13:42:33;37.60;55.80
5972;DHT22;3012;49.944;8.454;2023-09-12T13:45:01;38.10;54.60
5972;DHT22;3012;49.944;8.454;2023-09-12T13:47:29;38.30;53.60
5972;DHT22;3012;49.944;8.454;2023-09-12T13:49:59;38.40;53.30
5972;DHT22;3012;49.944;8.454;2023-09-12T13:52:27;38.20;52.80
5972;DHT22;3012;49.944;8.454;2023-09-12T13:54:55;37.90;51.80
5972;DHT22;3012;49.944;8.454;2023-09-12T13:57:26;37.30;52.00
5972;DHT22;3012;49.944;8.454;2023-09-12T13:59:54;36.90;53.00
5972;DHT22;3012;49.944;8.454;2023-09-12T14:02:22;36.50;52.60
5972;DHT22;3012;49.944;8.454;2023-09-12T14:04:51;36.20;53.40
5972;DHT22;3012;49.944;8.454;2023-09-12T14:07:35;36.20;54.20
5972;DHT22;3012;49.944;8.454;2023-09-12T14:10:04;36.20;54.10
5972;DHT22;3012;49.944;8.454;2023-09-12T14:12:34;36.40;53.80
5972;DHT22;3012;49.944;8.454;2023-09-12T14:15:02;36.60;53.70
5972;DHT22;3012;49.944;8.454;2023-09-12T14:17:35;36.50;53.00
5972;DHT22;3012;49.944;8.454;2023-09-12T14:20:10;35.80;54.80
5972;DHT22;3012;49.944;8.454;2023-09-12T14:22:42;34.90;55.90
5972;DHT22;3012;49.944;8.454;2023-09-12T14:25:11;33.80;57.10
5972;DHT22;3012;49.944;8.454;2023-09-12T14:27:43;32.90;58.60
5972;DHT22;3012;49.944;8.454;2023-09-12T14:30:12;32.10;60.10
5972;DHT22;3012;49.944;8.454;2023-09-12T14:32:40;31.60;62.80
5972;DHT22;3012;49.944;8.454;2023-09-12T14:35:09;30.90;64.90
5972;DHT22;3012;49.944;8.454;2023-09-12T14:37:37;30.50;66.80
5972;DHT22;3012;49.944;8.454;2023-09-12T14:40:06;30.10;67.60
5972;DHT22;3012;49.944;8.454;2023-09-12T14:42:34;29.80;69.10
5972;DHT22;3012;49.944;8.454;2023-09-12T14:45:05;29.60;70.80
5972;DHT22;3012;49.944;8.454;2023-09-12T14:47:33;29.40;72.20
5972;DHT22;3012;49.944;8.454;2023-09-12T14:50:02;29.20;71.60
5972;DHT22;3012;49.944;8.454;2023-09-12T14:52:30;29.00;72.40
5972;DHT22;3012;49.944;8.454;2023-09-12T14:54:58;28.80;73.80
5972;DHT22;3012;49.944;8.454;2023-09-12T14:57:26;28.70;75.20
5972;DHT22;3012;49.944;8.454;2023-09-12T14:59:54;28.60;75.10
5972;DHT22;3012;49.944;8.454;2023-09-12T15:02:25;28.50;75.90
5972;DHT22;3012;49.944;8.454;2023-09-12T15:04:58;28.50;75.20
5972;DHT22;3012;49.944;8.454;2023-09-12T15:07:27;28.40;75.20
5972;DHT22;3012;49.944;8.454;2023-09-12T15:09:56;28.30;76.00
5972;DHT22;3012;49.944;8.454;2023-09-12T15:12:25;28.30;76.60
5972;DHT22;3012;49.944;8.454;2023-09-12T15:14:53;28.20;76.90
5972;DHT22;3012;49.944;8.454;2023-09-12T15:17:21;28.10;77.30
5972;DHT22;3012;49.944;8.454;2023-09-12T15:19:50;28.10;78.00
5972;DHT22;3012;49.944;8.454;2023-09-12T15:22:18;28.00;79.00
5972;DHT22;3012;49.944;8.454;2023-09-12T15:24:46;28.00;79.20
5972;DHT22;3012;49.944;8.454;2023-09-12T15:27:14;27.90;79.40
5972;DHT22;3012;49.944;8.454;2023-09-12T15:29:42;27.90;79.60
5972;DHT22;3012;49.944;8.454;2023-09-12T15:32:10;27.80;79.80
5972;DHT22;3012;49.944;8.454;2023-09-12T15:34:38;27.80;80.10
5972;DHT22;3012;49.944;8.454;2023-09-12T15:37:09;27.80;80.10
5972;DHT22;3012;49.944;8.454;2023-09-12T15:39:40;27.80;81.60
5972;DHT22;3012;49.944;8.454;2023-09-12T15:42:09;27.80;82.20
5972;DHT22;3012;49.944;8.454;2023-09-12T15:44:56;27.80;83.40
5972;DHT22;3012;49.944;8.454;2023-09-12T15:47:29;27.80;81.90
5972;DHT22;3012;49.944;8.454;2023-09-12T15:49:57;27.80;82.00
5972;DHT22;3012;49.944;8.454;2023-09-12T15:52:26;27.80;82.50
5972;DHT22;3012;49.944;8.454;2023-09-12T15:54:54;27.70;83.00
5972;DHT22;3012;49.944;8.454;2023-09-12T15:57:23;27.70;83.70
5972;DHT22;3012;49.944;8.454;2023-09-12T15:59:51;27.60;84.40
5972;DHT22;3012;49.944;8.454;2023-09-12T16:02:19;27.60;85.00
5972;DHT22;3012;49.944;8.454;2023-09-12T16:04:48;27.60;85.20
5972;DHT22;3012;49.944;8.454;2023-09-12T16:07:16;27.60;86.00
5972;DHT22;3012;49.944;8.454;2023-09-12T16:09:45;27.50;86.80
5972;DHT22;3012;49.944;8.454;2023-09-12T16:12:14;27.60;86.90
5972;DHT22;3012;49.944;8.454;2023-09-12T16:14:42;27.70;86.30
5972;DHT22;3012;49.944;8.454;2023-09-12T16:17:10;27.60;86.00